sensor_id;sensor_type;location;lat;lon;timestamp;pressure;altitude;pressure_sealevel;temperature;humidity
37848;BME280;23688;33.130;-117.188;2023-01-31T00:01:33;99312.91;;;10.41;100.00
37848;BME280;23688;33.130;-117.188;2023-01-31T00:04:00;99319.53;;;10.33;100.00
37848;BME280;23688;33.130;-117.188;2023-01-31T00:06:35;99296.25;;;10.13;100.00
37848;BME280;23688;33.130;-117.188;2023-01-31T00:09:03;99318.16;;;10.21;100.00
37848;BME280;23688;33.130;-117.188;2023-01-31T00:11:30;99317.25;;;10.19;100.00
37848;BME280;23688;33.130;-117.188;2023-01-31T00:13:58;99309.22;;;10.13;100.00
37848;BME280;23688;33.130;-117.188;2023-01-31T00:16:25;99327.25;;;10.10;100.00
37848;BME280;23688;33.130;-117.188;2023-01-31T00:18:51;99328.06;;;10.09;100.00
37848;BME280;23688;33.130;-117.188;2023-01-31T00:21:21;99329.69;;;10.07;100.00
37848;BME280;23688;33.130;-117.188;2023-01-31T00:23:49;99330.41;;;10.03;100.00
37848;BME280;23688;33.130;-117.188;2023-01-31T00:26:20;99318.09;;;9.97;100.00
37848;BME280;23688;33.130;-117.188;2023-01-31T00:28:48;99316.13;;;9.92;100.00
37848;BME280;23688;33.130;-117.188;2023-01-31T00:31:16;99330.09;;;9.95;100.00
37848;BME280;23688;33.130;-117.188;2023-01-31T00:33:44;99322.91;;;9.88;100.00
37848;BME280;23688;33.130;-117.188;2023-01-31T00:36:16;99324.63;;;9.88;100.00
37848;BME280;23688;33.130;-117.188;2023-01-31T00:38:43;99328.69;;;9.82;100.00
37848;BME280;23688;33.130;-117.188;2023-01-31T00:41:10;99320.59;;;9.75;100.00
37848;BME280;23688;33.130;-117.188;2023-01-31T00:43:37;99323.72;;;9.66;100.00
37848;BME280;23688;33.130;-117.188;2023-01-31T00:46:03;99310.75;;;9.66;100.00
37848;BME280;23688;33.130;-117.188;2023-01-31T00:48:30;99317.50;;;9.62;100.00
37848;BME280;23688;33.130;-117.188;2023-01-31T00:50:59;99312.00;;;9.55;100.00
37848;BME280;23688;33.130;-117.188;2023-01-31T00:53:25;99306.81;;;9.55;100.00
37848;BME280;23688;33.130;-117.188;2023-01-31T00:55:54;99295.25;;;9.47;100.00
37848;BME280;23688;33.130;-117.188;2023-01-31T00:58:21;99311.25;;;9.57;100.00
37848;BME280;23688;33.130;-117.188;2023-01-31T01:00:48;99309.47;;;9.56;100.00
37848;BME280;23688;33.130;-117.188;2023-01-31T01:03:14;99296.22;;;9.49;100.00
37848;BME280;23688;33.130;-117.188;2023-01-31T01:05:41;99308.56;;;9.56;100.00
37848;BME280;23688;33.130;-117.188;2023-01-31T01:08:07;99297.00;;;9.48;100.00
37848;BME280;23688;33.130;-117.188;2023-01-31T01:10:33;99301.44;;;9.50;100.00
37848;BME280;23688;33.130;-117.188;2023-01-31T01:13:00;99297.13;;;9.51;100.00
37848;BME280;23688;33.130;-117.188;2023-01-31T01:15:27;99290.25;;;9.51;100.00
37848;BME280;23688;33.130;-117.188;2023-01-31T01:17:54;99275.59;;;9.52;100.00
37848;BME280;23688;33.130;-117.188;2023-01-31T01:20:21;99267.88;;;9.53;100.00
37848;BME280;23688;33.130;-117.188;2023-01-31T01:22:47;99281.28;;;9.64;100.00
37848;BME280;23688;33.130;-117.188;2023-01-31T01:25:13;99278.81;;;9.67;100.00
37848;BME280;23688;33.130;-117.188;2023-01-31T01:27:40;99263.94;;;9.63;100.00
37848;BME280;23688;33.130;-117.188;2023-01-31T01:30:07;99268.56;;;9.70;100.00
37848;BME280;23688;33.130;-117.188;2023-01-31T01:32:33;99273.94;;;9.75;100.00
37848;BME280;23688;33.130;-117.188;2023-01-31T01:34:59;99259.25;;;9.75;100.00
37848;BME280;23688;33.130;-117.188;2023-01-31T01:37:26;99257.63;;;9.77;100.00
37848;BME280;23688;33.130;-117.188;2023-01-31T01:39:52;99252.59;;;9.80;100.00
37848;BME280;23688;33.130;-117.188;2023-01-31T01:42:21;99244.84;;;9.82;100.00
37848;BME280;23688;33.130;-117.188;2023-01-31T01:44:59;99258.88;;;9.87;100.00
37848;BME280;23688;33.130;-117.188;2023-01-31T01:47:36;99263.31;;;9.90;100.00
37848;BME280;23688;33.130;-117.188;2023-01-31T01:50:46;99264.22;;;9.90;100.00
37848;BME280;23688;33.130;-117.188;2023-01-31T01:52:57;99258.88;;;9.87;100.00
37848;BME280;23688;33.130;-117.188;2023-01-31T01:55:33;99263.19;;;9.86;100.00
37848;BME280;23688;33.130;-117.188;2023-01-31T01:58:12;99260.66;;;9.88;100.00
37848;BME280;23688;33.130;-117.188;2023-01-31T02:00:39;99250.16;;;9.85;100.00
37848;BME280;23688;33.130;-117.188;2023-01-31T02:03:07;99246.50;;;9.80;100.00
37848;BME280;23688;33.130;-117.188;2023-01-31T02:05:44;99253.28;;;9.76;100.00
37848;BME280;23688;33.130;-117.188;2023-01-31T02:08:16;99261.16;;;9.79;100.00
37848;BME280;23688;33.130;-117.188;2023-01-31T02:11:02;99269.91;;;9.81;100.00
37848;BME280;23688;33.130;-117.188;2023-01-31T02:13:31;99278.50;;;9.80;100.00
37848;BME280;23688;33.130;-117.188;2023-01-31T02:15:57;99264.34;;;9.72;100.00
37848;BME280;23688;33.130;-117.188;2023-01-31T02:18:24;99282.66;;;9.77;100.00
37848;BME280;23688;33.130;-117.188;2023-01-31T02:29:56;99285.06;;;9.72;100.00
37848;BME280;23688;33.130;-117.188;2023-01-31T02:43:58;99303.28;;;9.74;100.00
37848;BME280;23688;33.130;-117.188;2023-01-31T02:47:03;99311.09;;;9.75;100.00
37848;BME280;23688;33.130;-117.188;2023-01-31T02:49:50;99321.56;;;9.77;100.00
37848;BME280;23688;33.130;-117.188;2023-01-31T02:57:34;99301.47;;;9.71;100.00
37848;BME280;23688;33.130;-117.188;2023-01-31T03:00:03;99309.47;;;9.77;100.00
37848;BME280;23688;33.130;-117.188;2023-01-31T03:02:30;99305.00;;;9.73;100.00
37848;BME280;23688;33.130;-117.188;2023-01-31T03:04:56;99319.91;;;9.79;100.00
37848;BME280;23688;33.130;-117.188;2023-01-31T03:07:26;99315.56;;;9.78;100.00
37848;BME280;23688;33.130;-117.188;2023-01-31T03:10:20;99312.81;;;9.75;100.00
37848;BME280;23688;33.130;-117.188;2023-01-31T03:16:16;99319.16;;;9.81;100.00
37848;BME280;23688;33.130;-117.188;2023-01-31T03:21:56;99313.97;;;9.81;100.00
37848;BME280;23688;33.130;-117.188;2023-01-31T03:24:26;99316.56;;;9.81;100.00
37848;BME280;23688;33.130;-117.188;2023-01-31T03:26:57;99313.28;;;9.85;100.00
37848;BME280;23688;33.130;-117.188;2023-01-31T03:29:29;99299.09;;;9.77;100.00
37848;BME280;23688;33.130;-117.188;2023-01-31T03:32:19;99312.34;;;9.83;100.00
37848;BME280;23688;33.130;-117.188;2023-01-31T03:34:50;99308.59;;;9.77;100.00
37848;BME280;23688;33.130;-117.188;2023-01-31T03:42:30;99327.19;;;9.67;100.00
37848;BME280;23688;33.130;-117.188;2023-01-31T03:48:02;99301.75;;;9.58;100.00
37848;BME280;23688;33.130;-117.188;2023-01-31T03:50:44;99299.13;;;9.56;100.00
37848;BME280;23688;33.130;-117.188;2023-01-31T03:53:17;99310.69;;;9.64;100.00
37848;BME280;23688;33.130;-117.188;2023-01-31T03:55:56;99308.41;;;9.51;100.00
37848;BME280;23688;33.130;-117.188;2023-01-31T03:58:27;99315.28;;;9.51;100.00
37848;BME280;23688;33.130;-117.188;2023-01-31T04:00:57;99295.25;;;9.47;100.00
37848;BME280;23688;33.130;-117.188;2023-01-31T04:03:35;99295.38;;;9.50;100.00
37848;BME280;23688;33.130;-117.188;2023-01-31T04:06:04;99315.53;;;9.57;100.00
37848;BME280;23688;33.130;-117.188;2023-01-31T04:08:32;99323.31;;;9.57;100.00
37848;BME280;23688;33.130;-117.188;2023-01-31T04:10:59;99320.59;;;9.54;100.00
37848;BME280;23688;33.130;-117.188;2023-01-31T04:13:29;99315.34;;;9.52;100.00
37848;BME280;23688;33.130;-117.188;2023-01-31T04:15:58;99320.41;;;9.49;100.00
37848;BME280;23688;33.130;-117.188;2023-01-31T04:18:25;99315.03;;;9.45;100.00
37848;BME280;23688;33.130;-117.188;2023-01-31T04:20:51;99315.91;;;9.45;100.00
37848;BME280;23688;33.130;-117.188;2023-01-31T04:23:17;99312.16;;;9.38;100.00
37848;BME280;23688;33.130;-117.188;2023-01-31T04:25:44;99310.81;;;9.27;100.00
37848;BME280;23688;33.130;-117.188;2023-01-31T04:28:10;99317.56;;;9.24;100.00
37848;BME280;23688;33.130;-117.188;2023-01-31T04:30:37;99325.97;;;9.18;100.00
37848;BME280;23688;33.130;-117.188;2023-01-31T04:33:03;99336.41;;;9.19;100.00
37848;BME280;23688;33.130;-117.188;2023-01-31T04:35:29;99326.78;;;9.17;100.00
37848;BME280;23688;33.130;-117.188;2023-01-31T04:37:56;99331.56;;;9.27;100.00
37848;BME280;23688;33.130;-117.188;2023-01-31T04:40:22;99318.28;;;9.19;100.00
37848;BME280;23688;33.130;-117.188;2023-01-31T04:42:50;99317.03;;;9.11;100.00
37848;BME280;23688;33.130;-117.188;2023-01-31T04:45:16;99339.78;;;9.18;100.00
37848;BME280;23688;33.130;-117.188;2023-01-31T04:47:43;99326.59;;;9.12;100.00
37848;BME280;23688;33.130;-117.188;2023-01-31T04:50:09;99339.66;;;9.15;100.00
37848;BME280;23688;33.130;-117.188;2023-01-31T04:52:36;99334.28;;;9.11;100.00
37848;BME280;23688;33.130;-117.188;2023-01-31T04:55:02;99335.22;;;9.13;100.00
37848;BME280;23688;33.130;-117.188;2023-01-31T04:57:28;99336.94;;;9.12;100.00
37848;BME280;23688;33.130;-117.188;2023-01-31T04:59:55;99341.28;;;9.13;100.00
37848;BME280;23688;33.130;-117.188;2023-01-31T05:02:21;99336.19;;;9.15;100.00
37848;BME280;23688;33.130;-117.188;2023-01-31T05:04:48;99329.09;;;9.11;100.00
37848;BME280;23688;33.130;-117.188;2023-01-31T05:07:14;99326.44;;;9.09;100.00
37848;BME280;23688;33.130;-117.188;2023-01-31T05:09:40;99335.91;;;9.09;100.00
37848;BME280;23688;33.130;-117.188;2023-01-31T05:12:08;99327.72;;;8.99;100.00
37848;BME280;23688;33.130;-117.188;2023-01-31T05:14:35;99341.84;;;9.06;100.00
37848;BME280;23688;33.130;-117.188;2023-01-31T05:17:01;99355.75;;;9.08;100.00
37848;BME280;23688;33.130;-117.188;2023-01-31T05:19:27;99345.94;;;9.01;100.00
37848;BME280;23688;33.130;-117.188;2023-01-31T05:21:54;99357.38;;;9.06;100.00
37848;BME280;23688;33.130;-117.188;2023-01-31T05:24:27;99374.41;;;9.01;100.00
37848;BME280;23688;33.130;-117.188;2023-01-31T05:26:55;99373.41;;;8.97;100.00
37848;BME280;23688;33.130;-117.188;2023-01-31T05:29:26;99361.00;;;8.90;100.00
37848;BME280;23688;33.130;-117.188;2023-01-31T05:31:54;99369.84;;;8.95;100.00
37848;BME280;23688;33.130;-117.188;2023-01-31T05:34:21;99364.59;;;8.94;100.00
37848;BME280;23688;33.130;-117.188;2023-01-31T05:36:48;99369.69;;;8.92;100.00
37848;BME280;23688;33.130;-117.188;2023-01-31T05:39:15;99370.50;;;8.91;100.00
37848;BME280;23688;33.130;-117.188;2023-01-31T05:41:41;99375.81;;;8.94;100.00
37848;BME280;23688;33.130;-117.188;2023-01-31T05:44:08;99373.50;;;8.81;100.00
37848;BME280;23688;33.130;-117.188;2023-01-31T05:46:36;99392.03;;;8.71;100.00
37848;BME280;23688;33.130;-117.188;2023-01-31T05:49:03;99383.06;;;8.64;100.00
37848;BME280;23688;33.130;-117.188;2023-01-31T05:51:29;99385.34;;;8.76;100.00
37848;BME280;23688;33.130;-117.188;2023-01-31T05:53:56;99393.25;;;8.79;100.00
37848;BME280;23688;33.130;-117.188;2023-01-31T05:56:22;99401.97;;;8.81;100.00
37848;BME280;23688;33.130;-117.188;2023-01-31T05:58:49;99402.63;;;8.77;100.00
37848;BME280;23688;33.130;-117.188;2023-01-31T06:01:21;99408.66;;;8.76;100.00
37848;BME280;23688;33.130;-117.188;2023-01-31T06:03:48;99399.91;;;8.74;100.00
37848;BME280;23688;33.130;-117.188;2023-01-31T06:06:14;99406.19;;;8.79;100.00
37848;BME280;23688;33.130;-117.188;2023-01-31T06:08:41;99412.19;;;8.78;100.00
37848;BME280;23688;33.130;-117.188;2023-01-31T06:11:08;99411.81;;;8.70;100.00
37848;BME280;23688;33.130;-117.188;2023-01-31T06:13:39;99392.25;;;8.57;100.00
37848;BME280;23688;33.130;-117.188;2023-01-31T06:16:08;99405.25;;;8.59;100.00
37848;BME280;23688;33.130;-117.188;2023-01-31T06:18:36;99389.44;;;8.53;100.00
37848;BME280;23688;33.130;-117.188;2023-01-31T06:21:02;99382.72;;;8.56;100.00
37848;BME280;23688;33.130;-117.188;2023-01-31T06:23:28;99380.25;;;8.60;100.00
37848;BME280;23688;33.130;-117.188;2023-01-31T06:25:56;99396.09;;;8.66;100.00
37848;BME280;23688;33.130;-117.188;2023-01-31T06:28:22;99397.41;;;8.57;100.00
37848;BME280;23688;33.130;-117.188;2023-01-31T06:30:50;99400.88;;;8.58;100.00
37848;BME280;23688;33.130;-117.188;2023-01-31T06:33:16;99406.00;;;8.56;100.00
37848;BME280;23688;33.130;-117.188;2023-01-31T06:35:43;99396.91;;;8.47;100.00
37848;BME280;23688;33.130;-117.188;2023-01-31T06:38:10;99405.41;;;8.44;100.00
37848;BME280;23688;33.130;-117.188;2023-01-31T06:40:41;99393.13;;;8.40;100.00
37848;BME280;23688;33.130;-117.188;2023-01-31T06:43:09;99403.56;;;8.42;100.00
37848;BME280;23688;33.130;-117.188;2023-01-31T06:45:36;99407.25;;;8.47;100.00
37848;BME280;23688;33.130;-117.188;2023-01-31T06:48:03;99412.50;;;8.48;100.00
37848;BME280;23688;33.130;-117.188;2023-01-31T06:50:29;99400.25;;;8.44;100.00
37848;BME280;23688;33.130;-117.188;2023-01-31T06:52:56;99414.16;;;8.46;100.00
37848;BME280;23688;33.130;-117.188;2023-01-31T06:55:24;99414.94;;;8.45;100.00
37848;BME280;23688;33.130;-117.188;2023-01-31T06:57:50;99418.34;;;8.44;100.00
37848;BME280;23688;33.130;-117.188;2023-01-31T07:00:17;99392.66;;;8.31;100.00
37848;BME280;23688;33.130;-117.188;2023-01-31T07:02:44;99414.78;;;8.42;100.00
37848;BME280;23688;33.130;-117.188;2023-01-31T07:05:11;99413.00;;;8.41;100.00
37848;BME280;23688;33.130;-117.188;2023-01-31T07:07:38;99416.78;;;8.48;100.00
37848;BME280;23688;33.130;-117.188;2023-01-31T07:10:05;99405.31;;;8.43;100.00
37848;BME280;23688;33.130;-117.188;2023-01-31T07:12:31;99418.63;;;8.50;100.00
37848;BME280;23688;33.130;-117.188;2023-01-31T07:14:58;99412.22;;;8.42;100.00
37848;BME280;23688;33.130;-117.188;2023-01-31T07:17:24;99420.06;;;8.44;100.00
37848;BME280;23688;33.130;-117.188;2023-01-31T07:19:50;99421.06;;;8.47;100.00
37848;BME280;23688;33.130;-117.188;2023-01-31T07:22:17;99413.66;;;8.37;100.00
37848;BME280;23688;33.130;-117.188;2023-01-31T07:24:43;99433.00;;;8.44;100.00
37848;BME280;23688;33.130;-117.188;2023-01-31T07:27:12;99434.53;;;8.40;100.00
37848;BME280;23688;33.130;-117.188;2023-01-31T07:29:38;99434.88;;;8.30;100.00
37848;BME280;23688;33.130;-117.188;2023-01-31T07:32:05;99442.16;;;8.21;100.00
37848;BME280;23688;33.130;-117.188;2023-01-31T07:34:31;99435.78;;;8.14;100.00
37848;BME280;23688;33.130;-117.188;2023-01-31T07:36:57;99425.06;;;8.06;100.00
37848;BME280;23688;33.130;-117.188;2023-01-31T07:39:26;99439.84;;;8.09;100.00
37848;BME280;23688;33.130;-117.188;2023-01-31T07:41:52;99437.94;;;8.05;100.00
37848;BME280;23688;33.130;-117.188;2023-01-31T07:44:19;99433.41;;;8.01;100.00
37848;BME280;23688;33.130;-117.188;2023-01-31T07:46:45;99429.22;;;8.03;100.00
37848;BME280;23688;33.130;-117.188;2023-01-31T07:49:12;99429.22;;;8.03;100.00
37848;BME280;23688;33.130;-117.188;2023-01-31T07:51:38;99432.03;;;8.07;100.00
37848;BME280;23688;33.130;-117.188;2023-01-31T07:54:05;99434.91;;;8.13;100.00
37848;BME280;23688;33.130;-117.188;2023-01-31T07:56:34;99440.22;;;8.17;100.00
37848;BME280;23688;33.130;-117.188;2023-01-31T07:59:00;99427.75;;;8.08;100.00
37848;BME280;23688;33.130;-117.188;2023-01-31T08:01:27;99434.81;;;8.12;100.00
37848;BME280;23688;33.130;-117.188;2023-01-31T08:04:14;99416.88;;;8.15;100.00
37848;BME280;23688;33.130;-117.188;2023-01-31T08:06:42;99415.34;;;8.19;100.00
37848;BME280;23688;33.130;-117.188;2023-01-31T08:09:09;99424.16;;;8.22;100.00
37848;BME280;23688;33.130;-117.188;2023-01-31T08:11:36;99436.00;;;8.19;100.00
37848;BME280;23688;33.130;-117.188;2023-01-31T08:14:04;99443.13;;;8.23;100.00
37848;BME280;23688;33.130;-117.188;2023-01-31T08:16:33;99455.97;;;8.21;100.00
37848;BME280;23688;33.130;-117.188;2023-01-31T08:19:01;99451.81;;;8.07;100.00
37848;BME280;23688;33.130;-117.188;2023-01-31T08:21:27;99443.31;;;8.09;100.00
37848;BME280;23688;33.130;-117.188;2023-01-31T08:23:54;99450.50;;;8.15;100.00
37848;BME280;23688;33.130;-117.188;2023-01-31T08:26:21;99442.88;;;8.00;100.00
37848;BME280;23688;33.130;-117.188;2023-01-31T08:28:48;99450.03;;;8.06;100.00
37848;BME280;23688;33.130;-117.188;2023-01-31T08:31:22;99451.31;;;8.14;100.00
37848;BME280;23688;33.130;-117.188;2023-01-31T08:33:48;99459.28;;;8.19;100.00
37848;BME280;23688;33.130;-117.188;2023-01-31T08:36:23;99447.91;;;8.15;100.00
37848;BME280;23688;33.130;-117.188;2023-01-31T08:38:50;99441.94;;;8.16;100.00
37848;BME280;23688;33.130;-117.188;2023-01-31T08:41:18;99457.03;;;8.25;100.00
37848;BME280;23688;33.130;-117.188;2023-01-31T08:43:45;99454.25;;;8.22;100.00
37848;BME280;23688;33.130;-117.188;2023-01-31T08:46:13;99470.25;;;8.31;100.00
37848;BME280;23688;33.130;-117.188;2023-01-31T08:48:40;99455.22;;;8.24;100.00
37848;BME280;23688;33.130;-117.188;2023-01-31T08:51:10;99463.47;;;8.33;100.00
37848;BME280;23688;33.130;-117.188;2023-01-31T08:53:38;99464.75;;;8.41;100.00
37848;BME280;23688;33.130;-117.188;2023-01-31T08:56:06;99469.34;;;8.47;100.00
37848;BME280;23688;33.130;-117.188;2023-01-31T08:58:39;99468.63;;;8.49;100.00
37848;BME280;23688;33.130;-117.188;2023-01-31T09:01:14;99473.84;;;8.51;100.00
37848;BME280;23688;33.130;-117.188;2023-01-31T09:03:41;99472.97;;;8.50;100.00
37848;BME280;23688;33.130;-117.188;2023-01-31T09:06:11;99478.97;;;8.49;100.00
37848;BME280;23688;33.130;-117.188;2023-01-31T09:08:37;99478.31;;;8.53;100.00
37848;BME280;23688;33.130;-117.188;2023-01-31T09:11:04;99471.34;;;8.52;100.00
37848;BME280;23688;33.130;-117.188;2023-01-31T09:13:32;99477.56;;;8.56;100.00
37848;BME280;23688;33.130;-117.188;2023-01-31T09:16:04;99475.91;;;8.58;100.00
37848;BME280;23688;33.130;-117.188;2023-01-31T09:18:33;99481.28;;;8.61;100.00
37848;BME280;23688;33.130;-117.188;2023-01-31T09:21:11;99475.00;;;8.56;100.00
37848;BME280;23688;33.130;-117.188;2023-01-31T09:23:37;99480.97;;;8.55;100.00
37848;BME280;23688;33.130;-117.188;2023-01-31T09:26:07;99488.06;;;8.59;100.00
37848;BME280;23688;33.130;-117.188;2023-01-31T09:28:34;99490.06;;;8.65;100.00
37848;BME280;23688;33.130;-117.188;2023-01-31T09:31:11;99487.31;;;8.62;100.00
37848;BME280;23688;33.130;-117.188;2023-01-31T09:33:38;99490.72;;;8.61;100.00
37848;BME280;23688;33.130;-117.188;2023-01-31T09:36:16;99499.31;;;8.60;100.00
37848;BME280;23688;33.130;-117.188;2023-01-31T09:38:43;99498.34;;;8.57;100.00
37848;BME280;23688;33.130;-117.188;2023-01-31T09:41:27;99487.69;;;8.51;100.00
37848;BME280;23688;33.130;-117.188;2023-01-31T09:46:49;99498.09;;;8.53;100.00
37848;BME280;23688;33.130;-117.188;2023-01-31T09:49:31;99505.81;;;8.51;100.00
37848;BME280;23688;33.130;-117.188;2023-01-31T09:52:00;99482.69;;;8.38;100.00
37848;BME280;23688;33.130;-117.188;2023-01-31T09:54:37;99494.50;;;8.49;100.00
37848;BME280;23688;33.130;-117.188;2023-01-31T10:05:11;99499.72;;;8.51;100.00
37848;BME280;23688;33.130;-117.188;2023-01-31T10:07:49;99500.47;;;8.48;100.00
37848;BME280;23688;33.130;-117.188;2023-01-31T10:12:49;99503.88;;;8.47;100.00
37848;BME280;23688;33.130;-117.188;2023-01-31T10:15:28;99494.16;;;8.43;100.00
37848;BME280;23688;33.130;-117.188;2023-01-31T10:18:07;99497.06;;;8.49;100.00
37848;BME280;23688;33.130;-117.188;2023-01-31T10:23:25;99505.50;;;8.45;100.00
37848;BME280;23688;33.130;-117.188;2023-01-31T10:26:06;99506.09;;;8.40;100.00
37848;BME280;23688;33.130;-117.188;2023-01-31T10:29:13;99516.47;;;8.41;100.00
37848;BME280;23688;33.130;-117.188;2023-01-31T10:31:48;99511.13;;;8.38;100.00
37848;BME280;23688;33.130;-117.188;2023-01-31T10:34:29;99513.56;;;8.35;100.00
37848;BME280;23688;33.130;-117.188;2023-01-31T10:37:36;99501.28;;;8.31;100.00
37848;BME280;23688;33.130;-117.188;2023-01-31T10:40:16;99501.38;;;8.32;100.00
37848;BME280;23688;33.130;-117.188;2023-01-31T10:45:37;99501.28;;;8.31;100.00
37848;BME280;23688;33.130;-117.188;2023-01-31T10:56:03;99472.56;;;8.08;100.00
37848;BME280;23688;33.130;-117.188;2023-01-31T10:58:31;99504.00;;;8.16;100.00
37848;BME280;23688;33.130;-117.188;2023-01-31T11:00:58;99496.44;;;8.03;100.00
37848;BME280;23688;33.130;-117.188;2023-01-31T11:03:24;99497.81;;;7.96;100.00
37848;BME280;23688;33.130;-117.188;2023-01-31T11:05:54;99504.75;;;7.97;100.00
37848;BME280;23688;33.130;-117.188;2023-01-31T11:10:56;99486.97;;;7.87;100.00
37848;BME280;23688;33.130;-117.188;2023-01-31T11:13:23;99505.41;;;7.93;100.00
37848;BME280;23688;33.130;-117.188;2023-01-31T11:15:51;99505.47;;;7.94;100.00
37848;BME280;23688;33.130;-117.188;2023-01-31T11:18:43;99513.06;;;7.91;100.00
37848;BME280;23688;33.130;-117.188;2023-01-31T11:21:25;99511.06;;;7.86;100.00
37848;BME280;23688;33.130;-117.188;2023-01-31T11:24:03;99529.22;;;7.87;100.00
37848;BME280;23688;33.130;-117.188;2023-01-31T11:26:39;99500.72;;;7.69;100.00
37848;BME280;23688;33.130;-117.188;2023-01-31T11:29:17;99513.75;;;7.71;100.00
37848;BME280;23688;33.130;-117.188;2023-01-31T11:31:47;99534.47;;;7.72;100.00
37848;BME280;23688;33.130;-117.188;2023-01-31T11:34:20;99530.91;;;7.70;100.00
37848;BME280;23688;33.130;-117.188;2023-01-31T11:36:47;99516.66;;;7.61;100.00
37848;BME280;23688;33.130;-117.188;2023-01-31T11:39:28;99528.84;;;7.63;100.00
37848;BME280;23688;33.130;-117.188;2023-01-31T11:42:03;99528.50;;;7.57;100.00
37848;BME280;23688;33.130;-117.188;2023-01-31T11:44:30;99518.31;;;7.44;100.00
37848;BME280;23688;33.130;-117.188;2023-01-31T11:46:59;99546.34;;;7.53;100.00
37848;BME280;23688;33.130;-117.188;2023-01-31T11:49:34;99541.25;;;7.54;100.00
37848;BME280;23688;33.130;-117.188;2023-01-31T11:54:45;99541.56;;;7.44;100.00
37848;BME280;23688;33.130;-117.188;2023-01-31T11:57:26;99539.38;;;7.35;100.00
37848;BME280;23688;33.130;-117.188;2023-01-31T11:59:54;99542.81;;;7.36;100.00
37848;BME280;23688;33.130;-117.188;2023-01-31T12:04:54;99547.84;;;7.33;100.00
37848;BME280;23688;33.130;-117.188;2023-01-31T12:07:24;99552.28;;;7.35;100.00
37848;BME280;23688;33.130;-117.188;2023-01-31T12:09:51;99545.56;;;7.39;100.00
37848;BME280;23688;33.130;-117.188;2023-01-31T12:12:25;99550.94;;;7.42;100.00
37848;BME280;23688;33.130;-117.188;2023-01-31T12:14:59;99533.56;;;7.39;100.00
37848;BME280;23688;33.130;-117.188;2023-01-31T12:17:28;99529.66;;;7.31;100.00
37848;BME280;23688;33.130;-117.188;2023-01-31T12:20:11;99549.94;;;7.40;100.00
37848;BME280;23688;33.130;-117.188;2023-01-31T12:27:59;99535.03;;;7.19;100.00
37848;BME280;23688;33.130;-117.188;2023-01-31T12:39:45;99557.69;;;7.08;100.00
37848;BME280;23688;33.130;-117.188;2023-01-31T12:45:04;99557.00;;;6.96;100.00
37848;BME280;23688;33.130;-117.188;2023-01-31T12:50:34;99570.16;;;7.01;100.00
37848;BME280;23688;33.130;-117.188;2023-01-31T12:56:00;99587.94;;;7.11;100.00
37848;BME280;23688;33.130;-117.188;2023-01-31T12:58:47;99588.50;;;7.05;100.00
37848;BME280;23688;33.130;-117.188;2023-01-31T13:02:09;99594.56;;;7.06;100.00
37848;BME280;23688;33.130;-117.188;2023-01-31T13:04:40;99607.34;;;7.04;100.00
37848;BME280;23688;33.130;-117.188;2023-01-31T13:07:06;99600.16;;;6.99;100.00
37848;BME280;23688;33.130;-117.188;2023-01-31T13:09:35;99610.31;;;6.96;100.00
37848;BME280;23688;33.130;-117.188;2023-01-31T13:12:08;99613.44;;;6.90;100.00
37848;BME280;23688;33.130;-117.188;2023-01-31T13:14:52;99622.78;;;6.88;100.00
37848;BME280;23688;33.130;-117.188;2023-01-31T13:17:27;99616.28;;;6.80;100.00
37848;BME280;23688;33.130;-117.188;2023-01-31T13:20:02;99620.81;;;6.84;100.00
37848;BME280;23688;33.130;-117.188;2023-01-31T13:22:47;99631.41;;;6.89;100.00
37848;BME280;23688;33.130;-117.188;2023-01-31T13:27:49;99636.41;;;6.85;100.00
37848;BME280;23688;33.130;-117.188;2023-01-31T13:30:35;99634.97;;;6.76;100.00
37848;BME280;23688;33.130;-117.188;2023-01-31T13:33:36;99636.41;;;6.71;100.00
37848;BME280;23688;33.130;-117.188;2023-01-31T13:36:24;99639.66;;;6.68;100.00
37848;BME280;23688;33.130;-117.188;2023-01-31T13:38:53;99629.63;;;6.58;100.00
37848;BME280;23688;33.130;-117.188;2023-01-31T13:41:31;99651.63;;;6.66;100.00
37848;BME280;23688;33.130;-117.188;2023-01-31T13:43:58;99660.50;;;6.71;100.00
37848;BME280;23688;33.130;-117.188;2023-01-31T13:47:14;99660.41;;;6.70;100.00
37848;BME280;23688;33.130;-117.188;2023-01-31T13:49:36;99651.06;;;6.57;100.00
37848;BME280;23688;33.130;-117.188;2023-01-31T13:52:14;99653.09;;;6.48;100.00
37848;BME280;23688;33.130;-117.188;2023-01-31T13:54:52;99674.81;;;6.51;100.00
37848;BME280;23688;33.130;-117.188;2023-01-31T13:57:28;99673.38;;;6.41;100.00
37848;BME280;23688;33.130;-117.188;2023-01-31T14:00:11;99680.81;;;6.37;100.00
37848;BME280;23688;33.130;-117.188;2023-01-31T14:03:08;99677.06;;;6.32;100.00
37848;BME280;23688;33.130;-117.188;2023-01-31T14:08:35;99683.94;;;6.18;100.00
37848;BME280;23688;33.130;-117.188;2023-01-31T14:16:38;99704.81;;;5.81;100.00
37848;BME280;23688;33.130;-117.188;2023-01-31T14:30:06;99721.66;;;5.89;100.00
37848;BME280;23688;33.130;-117.188;2023-01-31T14:43:49;99733.75;;;5.90;100.00
37848;BME280;23688;33.130;-117.188;2023-01-31T14:57:21;99766.66;;;5.94;100.00
37848;BME280;23688;33.130;-117.188;2023-01-31T15:05:03;99765.44;;;5.89;100.00
37848;BME280;23688;33.130;-117.188;2023-01-31T15:07:29;99764.38;;;5.86;100.00
37848;BME280;23688;33.130;-117.188;2023-01-31T15:09:56;99783.22;;;5.98;100.00
37848;BME280;23688;33.130;-117.188;2023-01-31T15:12:57;99787.75;;;5.89;100.00
37848;BME280;23688;33.130;-117.188;2023-01-31T15:15:37;99780.53;;;5.83;100.00
37848;BME280;23688;33.130;-117.188;2023-01-31T15:18:19;99793.50;;;5.85;100.00